createdAt,value
2018-10-09T00:01:16.684Z,32.44
2018-10-09T00:03:46.808Z,26.55
2018-10-09T00:06:18.142Z,23.55
2018-10-09T00:08:49.372Z,26.23
2018-10-09T00:11:20.318Z,31.04
2018-10-09T00:13:50.937Z,24.96
2018-10-09T00:16:21.941Z,25.00
2018-10-09T00:18:52.527Z,25.72
2018-10-09T00:21:23.870Z,29.78
2018-10-09T00:23:54.739Z,24.12
2018-10-09T00:26:25.657Z,25.92
2018-10-09T00:28:56.420Z,24.30
2018-10-09T00:31:27.957Z,27.20
2018-10-09T00:33:58.617Z,27.07
2018-10-09T00:36:29.457Z,26.15
2018-10-09T00:39:00.625Z,25.00
2018-10-09T00:41:31.504Z,23.38
2018-10-09T00:44:02.680Z,23.70
2018-10-09T00:46:33.611Z,24.30
2018-10-09T00:49:04.396Z,26.57
2018-10-09T00:51:35.797Z,25.74
2018-10-09T00:54:06.603Z,23.35
2018-10-09T00:56:38.195Z,20.27
2018-10-09T00:59:09.111Z,18.74
2018-10-09T01:01:41.772Z,20.55
2018-10-09T01:04:12.890Z,18.87
2018-10-09T01:06:43.922Z,18.74
2018-10-09T01:09:14.370Z,19.10
2018-10-09T01:11:45.123Z,19.60
2018-10-09T01:14:16.889Z,25.13
2018-10-09T01:16:47.503Z,24.60
2018-10-09T01:19:17.264Z,23.50
2018-10-09T01:21:47.800Z,23.94
2018-10-09T01:24:18.728Z,32.85
2018-10-09T01:26:49.513Z,21.20
2018-10-09T01:29:21.184Z,24.22
2018-10-09T01:31:51.684Z,21.30
2018-10-09T01:34:23.040Z,23.77
2018-10-09T01:36:53.608Z,27.82
2018-10-09T01:39:24.616Z,25.20
2018-10-09T01:41:57.170Z,24.95
2018-10-09T01:44:27.641Z,26.17
2018-10-09T01:46:57.695Z,26.83
2018-10-09T01:49:28.692Z,23.95
2018-10-09T01:51:59.447Z,28.75
2018-10-09T01:54:30.744Z,26.58
2018-10-09T01:57:01.541Z,25.10
2018-10-09T01:59:32.768Z,24.62
2018-10-09T02:02:03.600Z,25.12
2018-10-09T02:04:34.561Z,27.07
2018-10-09T02:07:05.740Z,25.42
2018-10-09T02:09:36.636Z,24.35
2018-10-09T02:12:07.668Z,27.58
2018-10-09T02:14:38.587Z,24.65
2018-10-09T02:17:09.448Z,23.83
2018-10-09T02:19:40.818Z,25.56
2018-10-09T02:22:11.504Z,26.12
2018-10-09T02:24:42.884Z,23.00
2018-10-09T02:27:13.596Z,28.65
2018-10-09T02:29:44.471Z,23.75
2018-10-09T02:32:15.579Z,21.04
2018-10-09T02:34:46.478Z,22.13
2018-10-09T02:37:17.632Z,22.48
2018-10-09T02:39:48.484Z,22.30
2018-10-09T02:42:19.654Z,24.07
2018-10-09T02:44:50.908Z,19.85
2018-10-09T02:47:21.784Z,22.65
2018-10-09T02:49:52.659Z,21.60
2018-10-09T02:52:24.313Z,21.68
2018-10-09T02:54:54.752Z,27.36
2018-10-09T02:57:25.431Z,51.40
2018-10-09T02:59:56.809Z,46.82
2018-10-09T03:02:27.820Z,63.30
2018-10-09T03:04:58.636Z,34.33
2018-10-09T03:07:29.400Z,28.10
2018-10-09T03:10:00.892Z,24.18
2018-10-09T03:12:31.543Z,25.48
2018-10-09T03:15:02.418Z,24.77
2018-10-09T03:17:33.623Z,24.62
2018-10-09T03:20:06.056Z,23.58
2018-10-09T03:22:36.085Z,21.20
2018-10-09T03:25:07.157Z,22.02
2018-10-09T03:27:37.696Z,22.95
2018-10-09T03:30:10.372Z,25.90
2018-10-09T03:32:40.432Z,26.33
2018-10-09T03:35:10.669Z,24.43
2018-10-09T03:37:41.520Z,24.47
2018-10-09T03:40:12.325Z,21.97
2018-10-09T03:42:43.803Z,22.38
2018-10-09T03:45:14.561Z,25.25
2018-10-09T03:47:45.736Z,26.17
2018-10-09T03:50:16.505Z,29.80
2018-10-09T03:52:47.405Z,28.57
2018-10-09T03:55:18.680Z,25.48
2018-10-09T03:57:49.579Z,26.97
2018-10-09T04:00:20.488Z,27.30
2018-10-09T04:02:51.780Z,28.66
2018-10-09T04:05:22.528Z,27.42
2018-10-09T04:07:53.909Z,28.98
2018-10-09T04:10:24.560Z,28.60
2018-10-09T04:12:55.392Z,33.33
2018-10-09T04:15:26.593Z,33.64
2018-10-09T04:17:57.753Z,33.98
2018-10-09T04:20:28.517Z,28.45
2018-10-09T04:22:59.443Z,32.60
2018-10-09T04:25:30.747Z,33.04
2018-10-09T04:28:01.563Z,31.12
2018-10-09T04:30:32.359Z,29.72
2018-10-09T04:33:03.732Z,32.40
2018-10-09T04:35:34.520Z,30.45
2018-10-09T04:38:05.580Z,35.55
2018-10-09T04:40:36.335Z,36.80
2018-10-09T04:43:07.757Z,38.16
2018-10-09T04:45:38.484Z,33.42
2018-10-09T04:48:09.680Z,28.55
2018-10-09T04:50:40.599Z,29.40
2018-10-09T04:53:11.736Z,29.55
2018-10-09T04:55:42.565Z,36.68
2018-10-09T04:58:13.544Z,34.67
2018-10-09T05:00:44.754Z,36.54
2018-10-09T05:03:15.644Z,35.45
2018-10-09T05:05:46.434Z,38.30
2018-10-09T05:08:17.749Z,39.20
2018-10-09T05:10:48.568Z,45.48
2018-10-09T05:13:19.620Z,42.67
2018-10-09T05:15:50.444Z,42.35
2018-10-09T05:18:21.811Z,44.94
2018-10-09T05:20:52.583Z,43.50
2018-10-09T05:23:23.594Z,43.20
2018-10-09T05:25:54.662Z,44.08
2018-10-09T05:28:25.574Z,46.02
2018-10-09T05:30:56.365Z,44.70
2018-10-09T05:33:27.740Z,39.55
2018-10-09T05:35:58.547Z,40.85
2018-10-09T05:38:29.920Z,44.20
2018-10-09T05:41:00.852Z,45.33
2018-10-09T05:43:31.868Z,42.83
2018-10-09T05:46:02.627Z,44.23
2018-10-09T05:48:33.380Z,48.23
2018-10-09T05:51:04.720Z,43.56
2018-10-09T05:53:35.560Z,46.53
2018-10-09T05:56:06.355Z,43.50
2018-10-09T05:58:37.641Z,50.74
2018-10-09T06:01:08.623Z,46.92
2018-10-09T06:03:39.452Z,49.08
2018-10-09T06:06:10.590Z,50.08
2018-10-09T06:08:41.512Z,54.18
2018-10-09T06:11:12.255Z,54.38
2018-10-09T06:13:43.802Z,51.24
2018-10-09T06:16:14.561Z,56.55
2018-10-09T06:18:47.459Z,53.44
2018-10-09T06:21:17.508Z,56.37
2018-10-09T06:23:47.747Z,52.00
2018-10-09T06:26:18.670Z,53.75
2018-10-09T06:28:49.453Z,55.90
2018-10-09T06:31:21.223Z,56.30
2018-10-09T06:33:51.666Z,54.76
2018-10-09T06:36:22.555Z,58.92
2018-10-09T06:38:53.296Z,59.30
2018-10-09T06:41:24.701Z,59.40
2018-10-09T06:43:55.620Z,60.55
2018-10-09T06:46:26.561Z,66.85
2018-10-09T06:48:57.365Z,63.65
2018-10-09T06:51:28.857Z,58.44
2018-10-09T06:54:07.920Z,60.92
2018-10-09T06:56:40.000Z,54.98
2018-10-09T06:59:10.009Z,58.87
2018-10-09T07:01:40.582Z,58.95
2018-10-09T07:04:10.631Z,59.23
2018-10-09T07:06:40.734Z,65.03
2018-10-09T07:09:12.189Z,73.37
2018-10-09T07:11:42.577Z,67.30
2018-10-09T07:14:13.050Z,73.12
2018-10-09T07:16:43.305Z,73.33
2018-10-09T07:19:13.456Z,74.85
2018-10-09T07:21:43.701Z,72.70
2018-10-09T07:24:13.797Z,79.55
2018-10-09T07:26:43.952Z,68.02
2018-10-09T07:29:14.044Z,84.50
2018-10-09T07:31:44.736Z,71.47
2018-10-09T07:34:15.522Z,76.87
2018-10-09T07:36:46.800Z,76.74
2018-10-09T07:39:17.618Z,75.40
2018-10-09T07:41:48.580Z,77.42
2018-10-09T07:44:19.374Z,77.72
2018-10-09T07:46:50.493Z,68.37
2018-10-09T07:49:21.538Z,60.75
2018-10-09T07:51:52.765Z,66.42
2018-10-09T07:54:24.734Z,65.83
2018-10-09T07:56:54.828Z,69.85
2018-10-09T07:59:25.902Z,71.53
2018-10-09T08:01:56.806Z,69.50
2018-10-09T08:04:27.609Z,66.92
2018-10-09T08:06:58.539Z,62.05
2018-10-09T08:09:29.717Z,71.44
2018-10-09T08:12:00.652Z,61.23
2018-10-09T08:14:31.490Z,64.65
2018-10-09T08:17:03.026Z,61.84
2018-10-09T08:19:33.605Z,59.33
2018-10-09T08:22:04.537Z,58.63
2018-10-09T08:24:35.393Z,61.80
2018-10-09T08:27:07.707Z,65.92
2018-10-09T08:29:37.559Z,64.25
2018-10-09T08:32:08.528Z,74.07
2018-10-09T08:34:39.759Z,75.28
2018-10-09T08:37:11.198Z,69.87
2018-10-09T08:39:42.007Z,69.77
2018-10-09T08:42:12.744Z,66.02
2018-10-09T08:44:43.778Z,67.95
2018-10-09T08:47:15.498Z,73.28
2018-10-09T08:49:45.393Z,68.95
2018-10-09T08:52:16.898Z,71.08
2018-10-09T08:54:47.710Z,57.93
2018-10-09T08:57:18.734Z,55.95
2018-10-09T08:59:49.652Z,56.35
2018-10-09T09:02:20.762Z,60.28
2018-10-09T09:04:51.723Z,61.88
2018-10-09T09:07:22.745Z,61.95
2018-10-09T09:09:53.589Z,54.77
2018-10-09T09:12:24.594Z,52.55
2018-10-09T09:14:55.476Z,56.25
2018-10-09T09:17:26.450Z,56.20
2018-10-09T09:19:57.912Z,55.20
2018-10-09T09:22:28.690Z,51.55
2018-10-09T09:24:59.489Z,51.20
2018-10-09T09:27:31.231Z,46.00
2018-10-09T09:30:01.783Z,51.02
2018-10-09T09:32:32.708Z,53.52
2018-10-09T09:35:03.596Z,49.33
2018-10-09T09:37:34.727Z,45.78
2018-10-09T09:40:05.855Z,54.53
2018-10-09T09:42:36.792Z,48.48
2018-10-09T09:45:07.870Z,47.25
2018-10-09T09:47:38.988Z,48.28
2018-10-09T09:50:09.688Z,52.67
2018-10-09T09:52:40.611Z,44.35
2018-10-09T09:55:11.467Z,43.13
2018-10-09T09:57:42.657Z,41.63
2018-10-09T10:00:18.630Z,50.30
2018-10-09T10:02:48.548Z,49.40
2018-10-09T10:05:18.452Z,42.80
2018-10-09T10:07:48.385Z,30.97
2018-10-09T10:10:18.336Z,27.37
2018-10-09T10:12:48.913Z,35.36
2018-10-09T10:15:19.830Z,39.27
2018-10-09T10:17:50.697Z,41.20
2018-10-09T10:20:21.645Z,43.33
2018-10-09T10:22:53.563Z,42.10
2018-10-09T10:25:23.574Z,43.40
2018-10-09T10:27:54.503Z,39.00
2018-10-09T10:30:25.580Z,45.15
2018-10-09T10:32:56.477Z,33.10
2018-10-09T10:35:27.895Z,31.54
2018-10-09T10:37:58.617Z,31.27
2018-10-09T10:40:29.648Z,37.28
2018-10-09T10:43:00.502Z,34.10
2018-10-09T10:45:31.526Z,37.10
2018-10-09T10:48:02.534Z,39.88
2018-10-09T10:50:33.629Z,40.92
2018-10-09T10:53:04.600Z,46.15
2018-10-09T10:55:35.518Z,47.35
2018-10-09T10:58:07.100Z,40.40
2018-10-09T11:00:37.750Z,37.35
2018-10-09T11:03:08.658Z,38.95
2018-10-09T11:05:39.601Z,35.15
2018-10-09T11:08:10.481Z,36.10
2018-10-09T11:10:41.684Z,31.87
2018-10-09T11:13:12.849Z,29.48
2018-10-09T11:15:43.732Z,31.17
2018-10-09T11:18:14.741Z,29.87
2018-10-09T11:20:45.682Z,32.00
2018-10-09T11:23:16.705Z,29.72
2018-10-09T11:25:47.603Z,31.97
2018-10-09T11:28:18.696Z,28.07
2018-10-09T11:30:49.861Z,24.77
2018-10-09T11:33:21.213Z,26.45
2018-10-09T11:35:52.017Z,27.50
2018-10-09T11:38:22.674Z,24.75
2018-10-09T11:40:53.730Z,21.33
2018-10-09T11:43:24.692Z,20.37
2018-10-09T11:45:55.818Z,18.65
2018-10-09T11:48:26.674Z,20.72
2018-10-09T11:50:58.553Z,19.75
2018-10-09T11:53:28.477Z,21.47
2018-10-09T11:55:59.921Z,18.54
2018-10-09T11:58:30.770Z,15.25
2018-10-09T12:01:04.626Z,18.52
2018-10-09T12:03:34.514Z,15.20
2018-10-09T12:06:04.484Z,15.33
2018-10-09T12:08:34.557Z,16.03
2018-10-09T12:11:04.655Z,15.70
2018-10-09T12:13:35.597Z,12.70
2018-10-09T12:16:06.756Z,16.50
2018-10-09T12:18:37.768Z,16.60
2018-10-09T12:21:08.736Z,17.98
2018-10-09T12:23:39.805Z,18.98
2018-10-09T12:26:11.754Z,15.48
2018-10-09T12:28:41.997Z,18.67
2018-10-09T12:31:12.980Z,13.08
2018-10-09T12:33:43.906Z,10.85
2018-10-09T12:36:14.637Z,16.32
2018-10-09T12:38:45.582Z,14.25
2018-10-09T12:41:16.441Z,13.18
2018-10-09T12:43:47.559Z,14.03
2018-10-09T12:46:18.541Z,13.13
2018-10-09T12:48:49.712Z,15.25
2018-10-09T12:51:20.556Z,10.63
2018-10-09T12:53:51.541Z,10.88
2018-10-09T12:56:22.400Z,12.65
2018-10-09T12:58:53.863Z,12.92
2018-10-09T13:01:24.758Z,16.48
2018-10-09T13:03:55.794Z,13.43
2018-10-09T13:06:26.660Z,16.07
2018-10-09T13:08:58.838Z,11.65
2018-10-09T13:11:28.775Z,11.37
2018-10-09T13:13:59.793Z,11.80
2018-10-09T13:16:30.638Z,11.00
2018-10-09T13:19:01.685Z,13.35
2018-10-09T13:21:33.648Z,12.78
2018-10-09T13:24:03.471Z,11.60
2018-10-09T13:26:34.375Z,11.88
2018-10-09T13:29:06.041Z,10.58
2018-10-09T13:31:36.677Z,12.82
2018-10-09T13:34:07.836Z,12.13
2018-10-09T13:36:38.661Z,12.30
2018-10-09T13:39:09.990Z,11.20
2018-10-09T13:41:40.699Z,11.68
2018-10-09T13:44:11.801Z,11.28
2018-10-09T13:46:42.728Z,11.30
2018-10-09T13:49:13.759Z,12.60
2018-10-09T13:51:44.780Z,9.65
2018-10-09T13:54:15.782Z,10.30
2018-10-09T13:56:46.689Z,11.85
2018-10-09T13:59:18.120Z,10.13
2018-10-09T14:01:48.655Z,9.33
2018-10-09T14:04:19.525Z,11.20
2018-10-09T14:06:50.450Z,10.45
2018-10-09T14:09:22.966Z,11.32
2018-10-09T14:11:54.066Z,9.93
2018-10-09T14:14:24.130Z,14.63
2018-10-09T14:16:55.068Z,11.00
2018-10-09T14:19:27.239Z,10.18
2018-10-09T14:21:57.260Z,9.57
2018-10-09T14:24:28.384Z,14.48
2018-10-09T14:26:58.707Z,12.67
2018-10-09T14:29:29.787Z,12.33
2018-10-09T14:32:00.642Z,14.07
2018-10-09T14:34:31.562Z,9.75
2018-10-09T14:37:02.374Z,14.80
2018-10-09T14:39:33.828Z,11.58
2018-10-09T14:42:04.938Z,14.53
2018-10-09T14:44:35.809Z,11.38
2018-10-09T14:47:06.633Z,10.93
2018-10-09T14:49:37.637Z,11.85
2018-10-09T14:52:08.763Z,8.48
2018-10-09T14:54:40.021Z,9.70
2018-10-09T14:57:10.622Z,8.90
2018-10-09T14:59:41.525Z,10.40
2018-10-09T15:02:12.486Z,11.73
2018-10-09T15:04:43.509Z,11.68
2018-10-09T15:07:14.432Z,10.00
2018-10-09T15:09:45.499Z,9.73
2018-10-09T15:12:16.413Z,8.95
2018-10-09T15:14:47.496Z,11.95
2018-10-09T15:17:18.386Z,8.60
2018-10-09T15:19:49.427Z,8.83
2018-10-09T15:22:20.405Z,12.28
2018-10-09T15:24:52.021Z,10.78
2018-10-09T15:27:22.841Z,12.98
2018-10-09T15:29:53.958Z,12.13
2018-10-09T15:32:24.718Z,15.68
2018-10-09T15:34:55.818Z,17.10
2018-10-09T15:37:26.683Z,15.50
2018-10-09T15:39:58.526Z,14.58
2018-10-09T15:42:28.353Z,17.65
2018-10-09T15:44:59.967Z,16.60
2018-10-09T15:47:30.949Z,15.58
2018-10-09T15:50:02.134Z,16.77
2018-10-09T15:52:32.840Z,15.83
2018-10-09T15:55:03.744Z,14.83
2018-10-09T15:57:34.673Z,21.40
2018-10-09T16:00:05.976Z,23.50
2018-10-09T16:02:37.451Z,24.07
2018-10-09T16:05:08.008Z,19.15
2018-10-09T16:07:39.698Z,22.10
2018-10-09T16:10:09.773Z,26.27
2018-10-09T16:12:40.685Z,22.90
2018-10-09T16:15:11.687Z,35.58
2018-10-09T16:17:42.565Z,23.12
2018-10-09T16:20:13.537Z,29.90
2018-10-09T16:22:44.382Z,33.08
2018-10-09T16:25:16.032Z,38.80
2018-10-09T16:27:46.698Z,37.60
2018-10-09T16:30:18.162Z,36.90
2018-10-09T16:32:49.418Z,58.60
2018-10-09T16:35:19.592Z,40.95
2018-10-09T16:37:50.527Z,38.63
2018-10-09T16:40:21.533Z,55.95
2018-10-09T16:42:52.394Z,57.93
2018-10-09T16:45:24.112Z,42.82
2018-10-09T16:47:54.780Z,58.17
2018-10-09T16:50:25.730Z,58.80
2018-10-09T16:52:56.608Z,59.67
2018-10-09T16:55:27.686Z,51.60
2018-10-09T16:57:58.531Z,47.08
2018-10-09T17:00:31.155Z,46.70
2018-10-09T17:03:01.364Z,45.43
2018-10-09T17:05:31.943Z,61.56
2018-10-09T17:08:02.620Z,48.70
2018-10-09T17:10:33.685Z,56.42
2018-10-09T17:13:04.624Z,52.55
2018-10-09T17:15:35.560Z,47.27
2018-10-09T17:18:06.768Z,63.08
2018-10-09T17:20:37.810Z,57.15
2018-10-09T17:23:09.217Z,58.08
2018-10-09T17:25:39.848Z,45.12
2018-10-09T17:28:10.715Z,39.35
2018-10-09T17:30:41.780Z,47.93
2018-10-09T17:33:12.758Z,47.55
2018-10-09T17:35:42.875Z,56.33
2018-10-09T17:38:15.343Z,57.63
2018-10-09T17:40:45.374Z,62.03
2018-10-09T17:43:15.710Z,96.60
2018-10-09T17:45:46.736Z,161.92
2018-10-09T17:48:17.672Z,102.50
2018-10-09T17:50:48.840Z,82.82
2018-10-09T17:53:19.780Z,69.12
2018-10-09T17:55:50.778Z,79.58
2018-10-09T17:58:21.720Z,131.15
2018-10-09T18:00:52.863Z,195.92
2018-10-09T18:03:24.094Z,187.60
2018-10-09T18:05:54.982Z,200.60
2018-10-09T18:08:25.707Z,181.78
2018-10-09T18:10:58.964Z,144.60
2018-10-09T18:13:31.054Z,137.63
2018-10-09T18:16:01.046Z,179.80
2018-10-09T18:18:32.452Z,224.57
2018-10-09T18:21:10.110Z,384.00
2018-10-09T18:23:40.486Z,508.35
2018-10-09T18:26:10.463Z,597.13
2018-10-09T18:28:40.394Z,560.97
2018-10-09T18:31:10.457Z,443.73
2018-10-09T18:33:40.294Z,329.50
2018-10-09T18:36:10.378Z,213.83
2018-10-09T18:38:42.132Z,135.45
2018-10-09T18:41:12.452Z,99.07
2018-10-09T18:43:43.455Z,81.43
2018-10-09T18:46:14.678Z,67.45
2018-10-09T18:48:45.041Z,70.27
2018-10-09T18:51:14.958Z,73.07
2018-10-09T18:53:47.994Z,68.77
2018-10-09T18:56:18.485Z,61.48
2018-10-09T18:58:52.109Z,53.65
2018-10-09T19:01:22.202Z,51.23
2018-10-09T19:03:52.242Z,46.87
2018-10-09T19:06:24.234Z,54.37
2018-10-09T19:08:54.802Z,77.80
2018-10-09T19:11:26.546Z,84.37
2018-10-09T19:13:57.645Z,66.10
2018-10-09T19:16:27.743Z,74.50
2018-10-09T19:18:57.659Z,87.47
2018-10-09T19:21:28.407Z,83.27
2018-10-09T19:23:58.704Z,78.30
2018-10-09T19:26:29.011Z,73.77
2018-10-09T19:28:59.754Z,79.03
2018-10-09T19:31:30.011Z,89.37
2018-10-09T19:34:00.113Z,94.50
2018-10-09T19:36:31.033Z,93.42
2018-10-09T19:39:01.868Z,113.03
2018-10-09T19:41:33.369Z,146.45
2018-10-09T19:44:03.504Z,244.10
2018-10-09T19:46:35.298Z,315.32
2018-10-09T19:49:05.773Z,285.63
2018-10-09T19:51:37.010Z,190.88
2018-10-09T19:54:14.815Z,137.05
2018-10-09T19:56:44.995Z,109.10
2018-10-09T19:59:15.778Z,116.93
2018-10-09T20:01:45.915Z,87.50
2018-10-09T20:04:16.094Z,77.90
2018-10-09T20:06:46.699Z,76.33
2018-10-09T20:09:16.622Z,70.83
2018-10-09T20:11:46.591Z,70.83
2018-10-09T20:14:16.843Z,63.38
2018-10-09T20:16:46.990Z,67.37
2018-10-09T20:19:17.721Z,75.85
2018-10-09T20:21:48.647Z,71.92
2018-10-09T20:24:19.834Z,74.55
2018-10-09T20:26:50.730Z,69.77
2018-10-09T20:29:22.163Z,67.22
2018-10-09T20:31:53.002Z,71.42
2018-10-09T20:34:23.838Z,66.82
2018-10-09T20:36:54.930Z,64.03
2018-10-09T20:39:26.122Z,59.50
2018-10-09T20:41:56.980Z,65.45
2018-10-09T20:44:27.855Z,64.72
2018-10-09T20:46:58.846Z,70.87
2018-10-09T20:49:31.076Z,74.84
2018-10-09T20:52:00.947Z,91.03
2018-10-09T20:54:31.915Z,109.78
2018-10-09T20:57:02.747Z,113.03
2018-10-09T20:59:34.049Z,108.15
2018-10-09T21:02:04.721Z,98.65
2018-10-09T21:04:35.737Z,96.55
2018-10-09T21:07:07.021Z,93.33
2018-10-09T21:09:38.027Z,94.72
2018-10-09T21:12:08.838Z,89.10
2018-10-09T21:14:39.814Z,80.75
2018-10-09T21:17:10.683Z,81.60
2018-10-09T21:19:41.649Z,79.40
2018-10-09T21:22:12.526Z,64.62
2018-10-09T21:24:43.984Z,66.20
2018-10-09T21:27:14.673Z,64.47
2018-10-09T21:29:45.835Z,60.48
2018-10-09T21:32:17.707Z,61.35
2018-10-09T21:34:47.683Z,59.70
2018-10-09T21:37:18.586Z,65.70
2018-10-09T21:39:49.576Z,62.83
2018-10-09T21:42:22.126Z,64.15
2018-10-09T21:44:52.310Z,59.67
2018-10-09T21:47:23.633Z,58.34
2018-10-09T21:49:53.942Z,61.57
2018-10-09T21:52:24.650Z,60.20
2018-10-09T21:54:55.733Z,62.85
2018-10-09T21:57:26.974Z,65.30
2018-10-09T21:59:57.825Z,77.00
2018-10-09T22:02:28.979Z,80.53
2018-10-09T22:04:59.622Z,81.55
2018-10-09T22:07:30.648Z,83.52
2018-10-09T22:10:01.783Z,69.45
2018-10-09T22:12:32.901Z,70.92
2018-10-09T22:15:03.662Z,63.58
2018-10-09T22:17:34.799Z,62.83
2018-10-09T22:20:06.094Z,58.85
2018-10-09T22:22:36.768Z,60.75
2018-10-09T22:25:07.854Z,64.53
2018-10-09T22:27:38.830Z,57.67
2018-10-09T22:30:10.329Z,60.50
2018-10-09T22:32:40.799Z,55.00
2018-10-09T22:35:11.803Z,52.25
2018-10-09T22:37:42.749Z,51.73
2018-10-09T22:40:13.732Z,51.48
2018-10-09T22:42:44.645Z,55.60
2018-10-09T22:45:15.819Z,52.23
2018-10-09T22:47:46.859Z,53.58
2018-10-09T22:50:18.039Z,42.78
2018-10-09T22:52:48.874Z,44.08
2018-10-09T22:55:19.875Z,43.85
2018-10-09T22:57:51.339Z,42.85
2018-10-09T23:00:22.139Z,45.26
2018-10-09T23:02:52.761Z,45.50
2018-10-09T23:05:23.815Z,42.55
2018-10-09T23:07:54.647Z,47.45
2018-10-09T23:10:25.709Z,42.23
2018-10-09T23:12:56.509Z,46.02
2018-10-09T23:15:27.839Z,43.32
2018-10-09T23:17:58.621Z,46.18
2018-10-09T23:20:29.656Z,42.20
2018-10-09T23:23:00.610Z,43.25
2018-10-09T23:25:32.035Z,40.75
2018-10-09T23:28:02.904Z,39.05
2018-10-09T23:30:34.420Z,39.05
2018-10-09T23:33:05.125Z,38.03
2018-10-09T23:35:36.221Z,42.65
2018-10-09T23:38:08.718Z,40.00
2018-10-09T23:40:38.653Z,41.95
2018-10-09T23:43:08.576Z,43.70
2018-10-09T23:45:39.742Z,42.73
2018-10-09T23:48:11.320Z,41.15
2018-10-09T23:50:42.744Z,45.04
2018-10-09T23:53:12.696Z,42.25
2018-10-09T23:55:43.636Z,44.38
2018-10-09T23:58:14.537Z,45.23
